Map

Track Data

SID SEASON NUMBER BASIN SUBBASIN NAME ISO_TIME NATURE LAT LON WMO_WIND WMO_PRES WMO_AGENCY TRACK_TYPE DIST2LAND LANDFALL IFLAG USA_AGENCY USA_ATCF_ID USA_LAT USA_LON USA_RECORD USA_STATUS USA_WIND USA_PRES USA_SSHS USA_R34_NE USA_R34_SE USA_R34_SW USA_R34_NW USA_R50_NE USA_R50_SE USA_R50_SW USA_R50_NW USA_R64_NE USA_R64_SE USA_R64_SW USA_R64_NW USA_POCI USA_ROCI USA_RMW USA_EYE TOKYO_LAT TOKYO_LON TOKYO_GRADE TOKYO_WIND TOKYO_PRES TOKYO_R50_DIR TOKYO_R50_LONG TOKYO_R50_SHORT TOKYO_R30_DIR TOKYO_R30_LONG TOKYO_R30_SHORT TOKYO_LAND CMA_LAT CMA_LON CMA_CAT CMA_WIND CMA_PRES HKO_LAT HKO_LON HKO_CAT HKO_WIND HKO_PRES NEWDELHI_LAT NEWDELHI_LON NEWDELHI_GRADE NEWDELHI_WIND NEWDELHI_PRES NEWDELHI_CI NEWDELHI_DP NEWDELHI_POCI REUNION_LAT REUNION_LON REUNION_TYPE REUNION_WIND REUNION_PRES REUNION_TNUM REUNION_CI REUNION_RMW REUNION_R34_NE REUNION_R34_SE REUNION_R34_SW REUNION_R34_NW REUNION_R50_NE REUNION_R50_SE REUNION_R50_SW REUNION_R50_NW REUNION_R64_NE REUNION_R64_SE REUNION_R64_SW REUNION_R64_NW BOM_LAT BOM_LON BOM_TYPE BOM_WIND BOM_PRES BOM_TNUM BOM_CI BOM_RMW BOM_R34_NE BOM_R34_SE BOM_R34_SW BOM_R34_NW BOM_R50_NE BOM_R50_SE BOM_R50_SW BOM_R50_NW BOM_R64_NE BOM_R64_SE BOM_R64_SW BOM_R64_NW BOM_ROCI BOM_POCI BOM_EYE BOM_POS_METHOD BOM_PRES_METHOD NADI_LAT NADI_LON NADI_CAT NADI_WIND NADI_PRES WELLINGTON_LAT WELLINGTON_LON WELLINGTON_WIND WELLINGTON_PRES DS824_LAT DS824_LON DS824_STAGE DS824_WIND DS824_PRES TD9636_LAT TD9636_LON TD9636_STAGE TD9636_WIND TD9636_PRES TD9635_LAT TD9635_LON TD9635_WIND TD9635_PRES TD9635_ROCI NEUMANN_LAT NEUMANN_LON NEUMANN_CLASS NEUMANN_WIND NEUMANN_PRES MLC_LAT MLC_LON MLC_CLASS MLC_WIND MLC_PRES USA_GUST BOM_GUST BOM_GUST_PER REUNION_GUST REUNION_GUST_PER USA_SEAHGT USA_SEARAD_NE USA_SEARAD_SE USA_SEARAD_SW USA_SEARAD_NW STORM_SPEED STORM_DIR
1903039S12052 1903 11 SI MM NOT_NAMED 1903-02-07 18:00:00 NR -12.2000 52.1000 main 255 230 __________O___ -1 -12.2000 52.1000 7 4 251
1903039S12052 1903 11 SI MM NOT_NAMED 1903-02-07 21:00:00 NR -12.2679 51.8966 main 230 210 __________P___ -1 -12.2679 51.8966 7 5 251
1903039S12052 1903 11 SI MM NOT_NAMED 1903-02-08 00:00:00 NR -12.3487 51.6446 main 200 166 __________P___ -1 -12.3487 51.6446 7 6 252
1903039S12052 1903 11 SI MM NOT_NAMED 1903-02-08 03:00:00 NR -12.4552 51.2954 main 161 107 __________P___ -1 -12.4552 51.2954 7 9 253
1903039S12052 1903 11 SI MM NOT_NAMED 1903-02-08 06:00:00 NR -12.6000 50.8000 main 107 39 __________O___ -1 -12.6000 50.8000 7 12 253
1903039S12052 1903 11 SI MM NOT_NAMED 1903-02-08 09:00:00 NR -12.7935 50.1299 main 31 0 __________P___ -1 -12.7935 50.1299 7 15 253
1903039S12052 1903 11 SI MM NOT_NAMED 1903-02-08 12:00:00 NR -13.0393 49.3397 main 0 0 __________P___ -1 -13.0393 49.3397 7 17 251
1903039S12052 1903 11 SI MM NOT_NAMED 1903-02-08 15:00:00 NR -13.3403 48.5046 main 22 0 __________P___ -1 -13.3403 48.5046 7 17 248
1903039S12052 1903 11 SI MM NOT_NAMED 1903-02-08 18:00:00 NR -13.7000 47.7000 main 21 21 __________O___ -1 -13.7000 47.7000 7 17 246
1903039S12052 1903 11 SI MM NOT_NAMED 1903-02-08 21:00:00 NR -14.0571 46.8759 main 92 92 __________P___ -1 -14.0571 46.8759 7 17 243
1903039S12052 1903 11 SI MM NOT_NAMED 1903-02-09 00:00:00 NR -14.4783 46.1167 main 114 101 __________P___ -1 -14.4783 46.1167 7 16 235
1903039S12052 1903 11 SI MM NOT_NAMED 1903-02-09 03:00:00 NR -14.9851 45.5240 main 101 44 __________P___ -1 -14.9851 45.5240 7 14 218
1903039S12052 1903 11 SI MM NOT_NAMED 1903-02-09 06:00:00 NR -15.6000 45.2000 main 44 0 __________O___ -1 -15.6000 45.2000 7 15 192
1903039S12052 1903 11 SI MM NOT_NAMED 1903-02-09 09:00:00 NR -16.4057 45.2177 main 0 0 __________P___ -1 -16.4057 45.2177 7 17 170
1903039S12052 1903 11 SI MM NOT_NAMED 1903-02-09 12:00:00 NR -17.3060 45.5130 main 0 0 __________P___ -1 -17.3060 45.5130 7 20 157
1903039S12052 1903 11 SI MM NOT_NAMED 1903-02-09 15:00:00 NR -18.2032 46.0023 main 0 0 __________P___ -1 -18.2032 46.0023 7 20 149
1903039S12052 1903 11 SI MM NOT_NAMED 1903-02-09 18:00:00 NR -19.0000 46.6000 main 0 0 __________O___ -1 -19.0000 46.6000 7 18 141
1903039S12052 1903 11 SI MM NOT_NAMED 1903-02-09 21:00:00 NR -19.6238 47.2318 main 0 0 __________P___ -1 -19.6238 47.2318 7 16 132
1903039S12052 1903 11 SI MM NOT_NAMED 1903-02-10 00:00:00 NR -20.0994 47.8788 main 0 0 __________P___ -1 -20.0994 47.8788 7 15 125
1903039S12052 1903 11 SI MM NOT_NAMED 1903-02-10 03:00:00 NR -20.4752 48.5362 main 0 0 __________P___ -1 -20.4752 48.5362 7 14 120
1903039S12052 1903 11 SI MM NOT_NAMED 1903-02-10 06:00:00 NR -20.8000 49.2000 main 76 __________O___ -1 -20.8000 49.2000 7 14 118

About IBTrACS Database

This database is a web-friendly format of International Best Track Archive for Climate Stewardship (IBTrACS), a global best track data archive curated by NOAA dating back to 1842.

Updated: 2021-10-21